TimeCDT,TemperatureF,Dew PointF,Humidity,Sea Level PressureIn,VisibilityMPH,Wind Direction,Wind SpeedMPH,Gust SpeedMPH,PrecipitationIn,Events,Conditions,WindDirDegrees,DateUTC
12:15 AM,68.4,67.5,97,30.02,4.0,Calm,Calm,-,N/A,,Clear,0,2013-08-22 05:15:00
12:35 AM,67.1,66.2,97,30.01,3.0,Calm,Calm,-,N/A,,Overcast,0,2013-08-22 05:35:00
12:55 AM,66.2,65.3,97,30.02,0.5,Calm,Calm,-,N/A,Fog,Fog,0,2013-08-22 05:55:00
1:15 AM,66.0,65.3,98,30.03,2.5,Calm,Calm,-,N/A,,Mist,0,2013-08-22 06:15:00
1:35 AM,67.5,66.7,98,30.02,1.0,Calm,Calm,-,N/A,,Mostly Cloudy,0,2013-08-22 06:35:00
1:55 AM,66.2,65.5,98,30.02,0.8,Calm,Calm,-,N/A,,Overcast,0,2013-08-22 06:55:00
2:15 AM,66.9,66.2,98,30.03,0.2,Calm,Calm,-,N/A,Fog,Fog,0,2013-08-22 07:15:00
2:35 AM,66.2,65.5,98,30.04,0.5,Calm,Calm,-,N/A,Fog,Fog,0,2013-08-22 07:35:00
2:55 AM,65.7,64.9,98,30.03,5.0,Calm,Calm,-,N/A,,Scattered Clouds,0,2013-08-22 07:55:00
3:15 AM,66.2,65.5,98,30.03,3.0,Calm,Calm,-,N/A,,Clear,0,2013-08-22 08:15:00
3:35 AM,64.8,64.2,98,30.03,2.5,Calm,Calm,-,N/A,,Clear,0,2013-08-22 08:35:00
3:55 AM,64.6,64.0,98,30.04,3.0,Calm,Calm,-,N/A,,Scattered Clouds,0,2013-08-22 08:55:00
4:15 AM,64.2,63.7,98,30.03,4.0,ENE,3.5,-,N/A,,Scattered Clouds,70,2013-08-22 09:15:00
4:35 AM,64.8,64.4,99,30.04,7.0,Calm,Calm,-,N/A,,Clear,0,2013-08-22 09:35:00
4:55 AM,65.5,64.8,98,30.04,7.0,Calm,Calm,-,N/A,,Mostly Cloudy,0,2013-08-22 09:55:00
5:15 AM,65.5,64.8,98,30.04,4.0,Calm,Calm,-,N/A,,Scattered Clouds,0,2013-08-22 10:15:00
5:35 AM,65.3,64.6,98,30.04,4.0,Calm,Calm,-,N/A,,Scattered Clouds,0,2013-08-22 10:35:00
5:55 AM,64.8,64.0,98,30.04,5.0,Calm,Calm,-,N/A,,Scattered Clouds,0,2013-08-22 10:55:00
6:15 AM,64.8,63.9,97,30.04,7.0,Calm,Calm,-,N/A,,Mostly Cloudy,0,2013-08-22 11:15:00
6:35 AM,65.3,64.6,98,30.04,7.0,Calm,Calm,-,N/A,,Overcast,0,2013-08-22 11:35:00
6:55 AM,65.8,64.9,97,30.05,7.0,Calm,Calm,-,N/A,,Mostly Cloudy,0,2013-08-22 11:55:00
7:15 AM,65.8,64.6,96,30.06,10.0,Calm,Calm,-,N/A,,Mostly Cloudy,0,2013-08-22 12:15:00
7:35 AM,65.8,64.4,95,30.10,10.0,West,8.1,-,N/A,,Overcast,270,2013-08-22 12:35:00
7:55 AM,66.2,64.8,95,30.09,4.0,East,4.6,-,0.02,Rain-Thunderstorm,Rain,80,2013-08-22 12:55:00
8:15 AM,66.2,64.6,94,30.11,10.0,Calm,Calm,-,0.01,Rain,Light Rain,0,2013-08-22 13:15:00
8:35 AM,65.7,64.4,96,30.15,7.0,WSW,9.2,-,0.01,Rain-Thunderstorm,Light Thunderstorms and Rain,250,2013-08-22 13:35:00
8:55 AM,66.2,64.6,94,30.14,10.0,WSW,5.8,-,0.01,,Scattered Clouds,250,2013-08-22 13:55:00
9:15 AM,66.7,64.8,93,30.15,10.0,Calm,Calm,-,N/A,,Scattered Clouds,0,2013-08-22 14:15:00
9:35 AM,67.6,65.5,93,30.14,10.0,Calm,Calm,-,N/A,,Mostly Cloudy,0,2013-08-22 14:35:00
9:55 AM,66.9,64.8,93,30.13,10.0,ESE,5.8,-,N/A,,Overcast,120,2013-08-22 14:55:00
10:15 AM,67.1,65.1,93,30.12,10.0,East,5.8,-,N/A,,Overcast,90,2013-08-22 15:15:00
10:35 AM,68.0,65.7,92,30.11,10.0,ENE,5.8,-,N/A,,Overcast,70,2013-08-22 15:35:00
11:15 AM,-9999,-9999,N/A,30.08,10.0,ENE,10.4,-,0.03,,Clear,70,2013-08-22 16:15:00
11:35 AM,72.3,60.6,67,30.07,10.0,ENE,6.9,-,0.03,,Clear,60,2013-08-22 16:35:00
11:55 AM,74.5,59.5,60,30.07,10.0,East,4.6,-,0.03,,Clear,80,2013-08-22 16:55:00
12:15 PM,75.2,59.9,59,30.06,10.0,SE,3.5,-,N/A,,Clear,130,2013-08-22 17:15:00
12:35 PM,78.1,55.0,45,30.06,10.0,ENE,8.1,-,N/A,,Clear,60,2013-08-22 17:35:00
12:55 PM,79.9,49.6,35,30.07,10.0,ENE,10.4,18.4,N/A,,Clear,60,2013-08-22 17:55:00
1:15 PM,80.8,49.8,34,30.07,10.0,ENE,12.7,-,N/A,,Clear,60,2013-08-22 18:15:00
1:35 PM,81.9,50.9,34,30.07,10.0,East,10.4,-,N/A,,Clear,90,2013-08-22 18:35:00
1:55 PM,82.8,50.4,32,30.08,10.0,East,9.2,-,N/A,,Clear,80,2013-08-22 18:55:00
2:15 PM,83.1,51.1,33,30.08,10.0,East,6.9,-,N/A,,Clear,100,2013-08-22 19:15:00
2:35 PM,84.2,50.9,32,30.08,10.0,East,8.1,-,N/A,,Clear,80,2013-08-22 19:35:00
2:55 PM,83.7,50.2,31,30.09,10.0,East,8.1,-,N/A,,Clear,100,2013-08-22 19:55:00
3:15 PM,84.0,51.1,32,30.09,10.0,Calm,Calm,-,N/A,,Clear,0,2013-08-22 20:15:00
3:35 PM,84.4,51.6,32,30.08,10.0,ESE,5.8,-,N/A,,Clear,110,2013-08-22 20:35:00
3:55 PM,83.7,50.5,32,30.08,10.0,SSE,4.6,-,N/A,,Clear,160,2013-08-22 20:55:00
4:15 PM,83.7,51.3,32,30.08,10.0,SE,8.1,-,N/A,,Clear,130,2013-08-22 21:15:00
4:35 PM,83.3,50.4,32,30.08,10.0,SSE,6.9,-,N/A,,Clear,160,2013-08-22 21:35:00
4:55 PM,83.3,50.5,32,30.08,10.0,South,4.6,-,N/A,,Clear,170,2013-08-22 21:55:00
5:15 PM,83.5,51.1,32,30.08,10.0,SSE,5.8,-,N/A,,Clear,150,2013-08-22 22:15:00
5:35 PM,83.1,50.2,32,30.08,10.0,SE,4.6,-,N/A,,Clear,140,2013-08-22 22:35:00
5:55 PM,81.9,50.9,34,30.08,10.0,SSE,4.6,-,N/A,,Clear,160,2013-08-22 22:55:00
6:15 PM,82.2,50.9,34,30.08,10.0,SSE,5.8,-,N/A,,Clear,160,2013-08-22 23:15:00
6:35 PM,81.5,53.1,37,30.08,10.0,SSE,4.6,-,N/A,,Clear,160,2013-08-22 23:35:00
6:55 PM,80.2,55.0,42,30.08,10.0,SSE,3.5,-,N/A,,Clear,160,2013-08-22 23:55:00
7:15 PM,78.1,55.6,46,30.09,10.0,Calm,Calm,-,N/A,,Clear,0,2013-08-23 00:15:00
7:35 PM,77.0,56.7,49,30.09,10.0,Calm,Calm,-,N/A,,Clear,0,2013-08-23 00:35:00
7:55 PM,71.2,61.2,70,30.09,10.0,Calm,Calm,-,N/A,,Clear,0,2013-08-23 00:55:00
8:15 PM,69.1,61.2,76,30.10,10.0,Calm,Calm,-,N/A,,Clear,0,2013-08-23 01:15:00
8:35 PM,66.6,61.3,83,30.10,10.0,Calm,Calm,-,N/A,,Clear,0,2013-08-23 01:35:00
8:55 PM,66.0,61.0,84,30.11,10.0,Calm,Calm,-,N/A,,Clear,0,2013-08-23 01:55:00
9:15 PM,65.5,61.2,86,30.11,10.0,Calm,Calm,-,N/A,,Clear,0,2013-08-23 02:15:00
9:35 PM,63.9,61.0,90,30.12,10.0,Calm,Calm,-,N/A,,Clear,0,2013-08-23 02:35:00
9:55 PM,63.5,60.8,91,30.12,10.0,Calm,Calm,-,N/A,,Clear,0,2013-08-23 02:55:00
10:15 PM,61.5,59.5,93,30.12,10.0,Calm,Calm,-,N/A,,Clear,0,2013-08-23 03:15:00
10:35 PM,61.7,59.9,94,30.12,10.0,Calm,Calm,-,N/A,,Clear,0,2013-08-23 03:35:00
10:55 PM,59.5,57.9,94,30.12,10.0,Calm,Calm,-,N/A,,Clear,0,2013-08-23 03:55:00
11:15 PM,59.7,58.3,95,30.12,10.0,Calm,Calm,-,N/A,,Clear,0,2013-08-23 04:15:00
11:35 PM,58.3,57.2,96,30.12,10.0,Calm,Calm,-,N/A,,Clear,0,2013-08-23 04:35:00
11:55 PM,58.3,57.2,96,30.12,10.0,Calm,Calm,-,N/A,,Clear,0,2013-08-23 04:55:00